sensor_id;sensor_type;location;lat;lon;timestamp;pressure;altitude;pressure_sealevel;temperature;humidity
73341;BME280;61578;52.002;5.468;2022-09-23T00:00:21;101780.34;;;9.69;83.72
73341;BME280;61578;52.002;5.468;2022-09-23T00:01:07;101769.34;;;9.58;84.10
73341;BME280;61578;52.002;5.468;2022-09-23T00:01:40;101777.75;;;9.68;84.24
73341;BME280;61578;52.002;5.468;2022-09-23T00:02:10;101759.78;;;9.55;84.31
73341;BME280;61578;52.002;5.468;2022-09-23T00:02:44;101759.84;;;9.54;84.44
73341;BME280;61578;52.002;5.468;2022-09-23T00:03:16;101782.19;;;9.67;84.42
73341;BME280;61578;52.002;5.468;2022-09-23T00:03:47;101783.06;;;9.68;84.69
73341;BME280;61578;52.002;5.468;2022-09-23T00:04:18;101776.06;;;9.67;84.46
73341;BME280;61578;52.002;5.468;2022-09-23T00:04:49;101784.84;;;9.67;84.38
73341;BME280;61578;52.002;5.468;2022-09-23T00:05:20;101758.13;;;9.53;84.51
73341;BME280;61578;52.002;5.468;2022-09-23T00:06:02;101768.66;;;9.54;84.29
73341;BME280;61578;52.002;5.468;2022-09-23T00:06:38;101772.94;;;9.57;83.92
73341;BME280;61578;52.002;5.468;2022-09-23T00:07:09;101758.13;;;9.53;84.39
73341;BME280;61578;52.002;5.468;2022-09-23T00:07:39;101696.44;;;9.10;84.67
73341;BME280;61578;52.002;5.468;2022-09-23T00:08:11;101755.41;;;9.54;84.62
73341;BME280;61578;52.002;5.468;2022-09-23T00:08:41;101741.69;;;9.45;84.70
73341;BME280;61578;52.002;5.468;2022-09-23T00:09:13;101778.72;;;9.67;84.39
73341;BME280;61578;52.002;5.468;2022-09-23T00:09:44;101758.25;;;9.50;84.18
73341;BME280;61578;52.002;5.468;2022-09-23T00:10:14;101779.72;;;9.64;84.24
73341;BME280;61578;52.002;5.468;2022-09-23T00:10:45;101783.22;;;9.65;84.56
73341;BME280;61578;52.002;5.468;2022-09-23T00:11:21;101781.50;;;9.64;84.37
73341;BME280;61578;52.002;5.468;2022-09-23T00:11:53;101757.31;;;9.51;84.38
73341;BME280;61578;52.002;5.468;2022-09-23T00:12:24;101784.09;;;9.65;84.42
73341;BME280;61578;52.002;5.468;2022-09-23T00:12:55;101770.88;;;9.64;84.15
73341;BME280;61578;52.002;5.468;2022-09-23T00:13:28;101771.69;;;9.66;84.64
73341;BME280;61578;52.002;5.468;2022-09-23T00:13:59;101759.84;;;9.54;84.46
73341;BME280;61578;52.002;5.468;2022-09-23T00:14:30;101776.06;;;9.67;84.25
73341;BME280;61578;52.002;5.468;2022-09-23T00:15:02;101770.75;;;9.67;84.65
73341;BME280;61578;52.002;5.468;2022-09-23T00:15:38;101775.97;;;9.68;84.65
73341;BME280;61578;52.002;5.468;2022-09-23T00:16:15;101767.38;;;9.63;83.96
73341;BME280;61578;52.002;5.468;2022-09-23T00:16:47;101777.84;;;9.66;84.02
73341;BME280;61578;52.002;5.468;2022-09-23T00:17:18;101772.56;;;9.66;83.95
73341;BME280;61578;52.002;5.468;2022-09-23T00:17:48;101774.25;;;9.67;84.28
73341;BME280;61578;52.002;5.468;2022-09-23T00:18:19;101769.91;;;9.66;84.39
73341;BME280;61578;52.002;5.468;2022-09-23T00:18:50;101771.59;;;9.67;84.48
73341;BME280;61578;52.002;5.468;2022-09-23T00:19:21;101770.66;;;9.68;83.91
73341;BME280;61578;52.002;5.468;2022-09-23T00:19:52;101769.91;;;9.66;84.13
73341;BME280;61578;52.002;5.468;2022-09-23T00:20:25;101773.19;;;9.71;84.38
73341;BME280;61578;52.002;5.468;2022-09-23T00:21:02;101767.03;;;9.71;84.16
73341;BME280;61578;52.002;5.468;2022-09-23T00:21:37;101772.31;;;9.71;84.16
73341;BME280;61578;52.002;5.468;2022-09-23T00:22:08;101767.88;;;9.71;84.32
73341;BME280;61578;52.002;5.468;2022-09-23T00:22:39;101774.13;;;9.70;84.48
73341;BME280;61578;52.002;5.468;2022-09-23T00:23:10;101779.41;;;9.70;84.58
73341;BME280;61578;52.002;5.468;2022-09-23T00:23:42;101767.31;;;9.65;84.42
73341;BME280;61578;52.002;5.468;2022-09-23T00:24:12;101767.16;;;9.68;84.86
73341;BME280;61578;52.002;5.468;2022-09-23T00:24:45;101773.41;;;9.67;84.47
73341;BME280;61578;52.002;5.468;2022-09-23T00:25:15;101768.00;;;9.68;84.31
73341;BME280;61578;52.002;5.468;2022-09-23T00:25:55;101767.16;;;9.68;84.26
73341;BME280;61578;52.002;5.468;2022-09-23T00:26:26;101760.06;;;9.68;84.12
73341;BME280;61578;52.002;5.468;2022-09-23T00:27:00;101762.72;;;9.68;84.04
73341;BME280;61578;52.002;5.468;2022-09-23T00:27:31;101752.41;;;9.62;83.84
73341;BME280;61578;52.002;5.468;2022-09-23T00:28:03;101768.00;;;9.68;84.02
73341;BME280;61578;52.002;5.468;2022-09-23T00:28:34;101750.66;;;9.61;84.38
73341;BME280;61578;52.002;5.468;2022-09-23T00:29:06;101751.41;;;9.65;84.22
73341;BME280;61578;52.002;5.468;2022-09-23T00:29:37;101730.81;;;9.51;83.89
73341;BME280;61578;52.002;5.468;2022-09-23T00:30:09;101761.84;;;9.68;84.12
73341;BME280;61578;52.002;5.468;2022-09-23T00:30:40;101761.78;;;9.69;83.91
73341;BME280;61578;52.002;5.468;2022-09-23T00:31:17;101758.28;;;9.69;84.19
73341;BME280;61578;52.002;5.468;2022-09-23T00:31:50;101761.78;;;9.69;84.00
73341;BME280;61578;52.002;5.468;2022-09-23T00:32:20;101758.19;;;9.70;83.88
73341;BME280;61578;52.002;5.468;2022-09-23T00:32:51;101755.63;;;9.69;84.27
73341;BME280;61578;52.002;5.468;2022-09-23T00:33:22;101742.72;;;9.61;84.61
73341;BME280;61578;52.002;5.468;2022-09-23T00:33:54;101756.41;;;9.71;84.18
73341;BME280;61578;52.002;5.468;2022-09-23T00:34:26;101761.66;;;9.72;84.54
73341;BME280;61578;52.002;5.468;2022-09-23T00:34:57;101735.00;;;9.56;83.81
73341;BME280;61578;52.002;5.468;2022-09-23T00:35:27;101756.47;;;9.69;84.34
73341;BME280;61578;52.002;5.468;2022-09-23T00:36:04;101740.94;;;9.62;84.02
73341;BME280;61578;52.002;5.468;2022-09-23T00:36:36;101756.47;;;9.69;83.85
73341;BME280;61578;52.002;5.468;2022-09-23T00:37:07;101758.28;;;9.69;83.78
73341;BME280;61578;52.002;5.468;2022-09-23T00:37:38;101748.75;;;9.65;83.68
73341;BME280;61578;52.002;5.468;2022-09-23T00:38:09;101754.84;;;9.67;84.34
73341;BME280;61578;52.002;5.468;2022-09-23T00:38:40;101753.91;;;9.68;84.07
73341;BME280;61578;52.002;5.468;2022-09-23T00:39:11;101753.91;;;9.68;83.74
73341;BME280;61578;52.002;5.468;2022-09-23T00:39:42;101752.09;;;9.68;84.25
73341;BME280;61578;52.002;5.468;2022-09-23T00:40:15;101753.03;;;9.67;84.16
73341;BME280;61578;52.002;5.468;2022-09-23T00:40:45;101751.34;;;9.66;84.05
73341;BME280;61578;52.002;5.468;2022-09-23T00:41:16;101756.72;;;9.65;84.31
73341;BME280;61578;52.002;5.468;2022-09-23T00:41:47;101747.09;;;9.62;84.00
73341;BME280;61578;52.002;5.468;2022-09-23T00:42:20;101754.00;;;9.66;83.63
73341;BME280;61578;52.002;5.468;2022-09-23T00:42:52;101741.13;;;9.57;84.09
73341;BME280;61578;52.002;5.468;2022-09-23T00:44:58;101753.25;;;9.63;84.08
73341;BME280;61578;52.002;5.468;2022-09-23T00:45:30;101751.53;;;9.62;84.07
73341;BME280;61578;52.002;5.468;2022-09-23T00:46:02;101753.31;;;9.61;83.75
73341;BME280;61578;52.002;5.468;2022-09-23T00:47:16;101702.75;;;9.27;83.75
73341;BME280;61578;52.002;5.468;2022-09-23T00:47:57;101754.25;;;9.60;84.02
73341;BME280;61578;52.002;5.468;2022-09-23T00:48:31;101749.88;;;9.59;84.24
73341;BME280;61578;52.002;5.468;2022-09-23T00:49:09;101744.88;;;9.53;84.47
73341;BME280;61578;52.002;5.468;2022-09-23T00:50:07;101726.00;;;9.40;84.06
73341;BME280;61578;52.002;5.468;2022-09-23T00:50:48;101737.91;;;9.50;83.93
73341;BME280;61578;52.002;5.468;2022-09-23T00:51:29;101753.38;;;9.59;84.30
73341;BME280;61578;52.002;5.468;2022-09-23T00:52:13;101751.66;;;9.58;83.88
73341;BME280;61578;52.002;5.468;2022-09-23T00:52:50;101736.13;;;9.51;83.88
73341;BME280;61578;52.002;5.468;2022-09-23T00:53:25;101753.56;;;9.56;84.20
73341;BME280;61578;52.002;5.468;2022-09-23T00:53:56;101746.44;;;9.57;84.68
73341;BME280;61578;52.002;5.468;2022-09-23T00:54:28;101713.66;;;9.39;84.41
73341;BME280;61578;52.002;5.468;2022-09-23T00:55:06;101718.03;;;9.40;84.04
73341;BME280;61578;52.002;5.468;2022-09-23T00:55:47;101721.34;;;9.45;84.07
73341;BME280;61578;52.002;5.468;2022-09-23T00:56:22;101744.72;;;9.56;84.20
73341;BME280;61578;52.002;5.468;2022-09-23T00:56:56;101737.41;;;9.61;83.82
73341;BME280;61578;52.002;5.468;2022-09-23T00:57:29;101740.06;;;9.61;83.63
73341;BME280;61578;52.002;5.468;2022-09-23T00:58:02;101746.22;;;9.62;83.52
73341;BME280;61578;52.002;5.468;2022-09-23T00:58:40;101745.38;;;9.61;83.64
73341;BME280;61578;52.002;5.468;2022-09-23T00:59:14;101721.34;;;9.45;83.72
73341;BME280;61578;52.002;5.468;2022-09-23T00:59:47;101739.13;;;9.62;83.93
73341;BME280;61578;52.002;5.468;2022-09-23T01:00:21;101694.47;;;9.34;83.91
73341;BME280;61578;52.002;5.468;2022-09-23T01:00:53;101732.25;;;9.58;83.24
73341;BME280;61578;52.002;5.468;2022-09-23T01:01:24;101722.84;;;9.51;83.91
73341;BME280;61578;52.002;5.468;2022-09-23T01:01:56;101722.00;;;9.50;83.86
73341;BME280;61578;52.002;5.468;2022-09-23T01:02:29;101733.16;;;9.57;84.05
73341;BME280;61578;52.002;5.468;2022-09-23T01:03:03;101723.66;;;9.53;84.15
73341;BME280;61578;52.002;5.468;2022-09-23T01:03:36;101726.31;;;9.53;83.77
73341;BME280;61578;52.002;5.468;2022-09-23T01:04:07;101733.16;;;9.57;83.45
73341;BME280;61578;52.002;5.468;2022-09-23T01:04:38;101742.94;;;9.56;83.79
73341;BME280;61578;52.002;5.468;2022-09-23T01:05:10;101734.13;;;9.56;83.40
73341;BME280;61578;52.002;5.468;2022-09-23T01:05:41;101715.97;;;9.47;83.88
73341;BME280;61578;52.002;5.468;2022-09-23T01:06:13;101737.66;;;9.56;84.02
73341;BME280;61578;52.002;5.468;2022-09-23T01:06:44;101730.63;;;9.55;83.65
73341;BME280;61578;52.002;5.468;2022-09-23T01:07:15;101738.47;;;9.57;83.85
73341;BME280;61578;52.002;5.468;2022-09-23T01:07:46;101734.13;;;9.56;83.97
73341;BME280;61578;52.002;5.468;2022-09-23T01:08:20;101737.53;;;9.58;83.49
73341;BME280;61578;52.002;5.468;2022-09-23T01:08:52;101719.28;;;9.52;83.54
73341;BME280;61578;52.002;5.468;2022-09-23T01:09:23;101722.72;;;9.54;83.91
73341;BME280;61578;52.002;5.468;2022-09-23T01:09:56;101737.84;;;9.52;83.86
73341;BME280;61578;52.002;5.468;2022-09-23T01:10:39;101722.34;;;9.43;83.71
73341;BME280;61578;52.002;5.468;2022-09-23T01:11:51;101731.75;;;9.50;83.87
73341;BME280;61578;52.002;5.468;2022-09-23T01:14:28;101678.88;;;9.08;83.96
73341;BME280;61578;52.002;5.468;2022-09-23T01:15:44;101724.88;;;9.46;83.99
73341;BME280;61578;52.002;5.468;2022-09-23T01:16:29;101732.94;;;9.43;84.34
73341;BME280;61578;52.002;5.468;2022-09-23T01:17:22;101725.06;;;9.41;84.29
73341;BME280;61578;52.002;5.468;2022-09-23T01:18:43;101736.53;;;9.42;83.87
73341;BME280;61578;52.002;5.468;2022-09-23T01:25:01;101745.53;;;9.38;83.89
73341;BME280;61578;52.002;5.468;2022-09-23T01:29:59;101722.44;;;9.21;83.88
73341;BME280;61578;52.002;5.468;2022-09-23T01:34:37;101728.31;;;9.28;83.88
73341;BME280;61578;52.002;5.468;2022-09-23T01:37:02;101727.47;;;9.27;83.88
73341;BME280;61578;52.002;5.468;2022-09-23T01:39:00;101725.66;;;9.28;83.80
73341;BME280;61578;52.002;5.468;2022-09-23T01:39:49;101712.66;;;9.23;83.74
73341;BME280;61578;52.002;5.468;2022-09-23T01:42:57;101703.44;;;9.11;84.16
73341;BME280;61578;52.002;5.468;2022-09-23T01:43:48;101711.00;;;9.20;84.29
73341;BME280;61578;52.002;5.468;2022-09-23T01:45:04;101700.59;;;9.16;84.40
73341;BME280;61578;52.002;5.468;2022-09-23T01:45:45;101710.84;;;9.23;83.90
73341;BME280;61578;52.002;5.468;2022-09-23T01:46:23;101716.78;;;9.29;83.78
73341;BME280;61578;52.002;5.468;2022-09-23T01:47:01;101714.22;;;9.27;83.97
73341;BME280;61578;52.002;5.468;2022-09-23T01:47:54;101715.06;;;9.28;84.10
73341;BME280;61578;52.002;5.468;2022-09-23T01:48:35;101716.78;;;9.29;84.11
73341;BME280;61578;52.002;5.468;2022-09-23T01:49:28;101715.88;;;9.30;83.86
73341;BME280;61578;52.002;5.468;2022-09-23T01:50:15;101714.94;;;9.31;84.26
73341;BME280;61578;52.002;5.468;2022-09-23T01:51:18;101713.97;;;9.33;84.21
73341;BME280;61578;52.002;5.468;2022-09-23T01:52:14;101711.25;;;9.35;84.42
73341;BME280;61578;52.002;5.468;2022-09-23T01:53:13;101714.66;;;9.37;84.07
73341;BME280;61578;52.002;5.468;2022-09-23T01:55:44;101712.97;;;9.36;84.26
73341;BME280;61578;52.002;5.468;2022-09-23T01:56:29;101692.31;;;9.23;84.01
73341;BME280;61578;52.002;5.468;2022-09-23T01:57:26;101710.22;;;9.37;84.20
73341;BME280;61578;52.002;5.468;2022-09-23T01:58:26;101712.88;;;9.37;84.08
73341;BME280;61578;52.002;5.468;2022-09-23T01:59:13;101711.88;;;9.40;84.37
73341;BME280;61578;52.002;5.468;2022-09-23T02:00:06;101707.66;;;9.36;84.28
73341;BME280;61578;52.002;5.468;2022-09-23T02:00:59;101717.19;;;9.40;84.15
73341;BME280;61578;52.002;5.468;2022-09-23T02:03:10;101716.19;;;9.42;84.19
73341;BME280;61578;52.002;5.468;2022-09-23T02:04:00;101718.78;;;9.44;84.27
73341;BME280;61578;52.002;5.468;2022-09-23T02:04:46;101716.13;;;9.44;83.78
73341;BME280;61578;52.002;5.468;2022-09-23T02:05:35;101693.63;;;9.34;84.02
73341;BME280;61578;52.002;5.468;2022-09-23T02:06:27;101707.78;;;9.33;83.98
73341;BME280;61578;52.002;5.468;2022-09-23T02:07:14;101713.59;;;9.41;84.11
73341;BME280;61578;52.002;5.468;2022-09-23T02:08:07;101711.81;;;9.41;84.34
73341;BME280;61578;52.002;5.468;2022-09-23T02:09:36;101697.59;;;9.23;84.24
73341;BME280;61578;52.002;5.468;2022-09-23T02:10:27;101718.28;;;9.36;83.96
73341;BME280;61578;52.002;5.468;2022-09-23T02:11:11;101640.53;;;8.96;84.24
73341;BME280;61578;52.002;5.468;2022-09-23T02:11:47;101710.22;;;9.37;84.20
73341;BME280;61578;52.002;5.468;2022-09-23T02:12:25;101702.13;;;9.21;84.42
73341;BME280;61578;52.002;5.468;2022-09-23T02:13:05;101714.81;;;9.34;84.40
73341;BME280;61578;52.002;5.468;2022-09-23T02:13:53;101715.81;;;9.31;84.09
73341;BME280;61578;52.002;5.468;2022-09-23T02:14:48;101715.81;;;9.31;84.76
73341;BME280;61578;52.002;5.468;2022-09-23T02:15:28;101721.09;;;9.31;84.06
73341;BME280;61578;52.002;5.468;2022-09-23T02:16:14;101694.28;;;9.18;84.54
73341;BME280;61578;52.002;5.468;2022-09-23T02:17:03;101708.72;;;9.32;84.64
73341;BME280;61578;52.002;5.468;2022-09-23T02:17:47;101693.25;;;9.22;84.22
73341;BME280;61578;52.002;5.468;2022-09-23T02:18:32;101693.09;;;9.26;84.47
73341;BME280;61578;52.002;5.468;2022-09-23T02:20:02;101695.41;;;9.33;84.51
73341;BME280;61578;52.002;5.468;2022-09-23T02:20:37;101707.38;;;9.42;84.08
73341;BME280;61578;52.002;5.468;2022-09-23T02:21:14;101704.66;;;9.43;83.99
73341;BME280;61578;52.002;5.468;2022-09-23T02:22:01;101693.44;;;9.37;84.24
73341;BME280;61578;52.002;5.468;2022-09-23T02:22:50;101695.84;;;9.43;84.27
73341;BME280;61578;52.002;5.468;2022-09-23T02:23:37;101700.06;;;9.47;84.22
73341;BME280;61578;52.002;5.468;2022-09-23T02:24:29;101695.06;;;9.41;83.72
73341;BME280;61578;52.002;5.468;2022-09-23T02:25:02;101694.84;;;9.45;84.16
73341;BME280;61578;52.002;5.468;2022-09-23T02:25:53;101692.28;;;9.44;83.96
73341;BME280;61578;52.002;5.468;2022-09-23T02:27:59;101696.47;;;9.48;83.65
73341;BME280;61578;52.002;5.468;2022-09-23T02:30:04;101689.25;;;9.51;83.92
73341;BME280;61578;52.002;5.468;2022-09-23T02:30:49;101693.56;;;9.54;83.91
73341;BME280;61578;52.002;5.468;2022-09-23T02:31:41;101687.34;;;9.55;83.99
73341;BME280;61578;52.002;5.468;2022-09-23T02:33:55;101686.47;;;9.54;84.21
73341;BME280;61578;52.002;5.468;2022-09-23T02:35:45;101671.69;;;9.49;83.96
73341;BME280;61578;52.002;5.468;2022-09-23T02:37:18;101656.34;;;9.37;83.75
73341;BME280;61578;52.002;5.468;2022-09-23T02:37:43;101682.16;;;9.52;83.91
73341;BME280;61578;52.002;5.468;2022-09-23T02:38:45;101677.72;;;9.52;83.94
73341;BME280;61578;52.002;5.468;2022-09-23T02:39:30;101674.09;;;9.55;83.74
73341;BME280;61578;52.002;5.468;2022-09-23T02:40:36;101671.56;;;9.52;83.69
73341;BME280;61578;52.002;5.468;2022-09-23T02:41:27;101672.44;;;9.52;83.90
73341;BME280;61578;52.002;5.468;2022-09-23T02:42:11;101649.06;;;9.42;83.57
73341;BME280;61578;52.002;5.468;2022-09-23T02:43:06;101650.84;;;9.41;83.81
73341;BME280;61578;52.002;5.468;2022-09-23T02:44:35;101649.94;;;9.42;83.96
73341;BME280;61578;52.002;5.468;2022-09-23T02:45:06;101663.53;;;9.53;83.87
73341;BME280;61578;52.002;5.468;2022-09-23T02:45:37;101668.84;;;9.53;83.89
73341;BME280;61578;52.002;5.468;2022-09-23T02:46:08;101662.69;;;9.53;83.58
73341;BME280;61578;52.002;5.468;2022-09-23T02:46:39;101649.78;;;9.45;83.64
73341;BME280;61578;52.002;5.468;2022-09-23T02:47:12;101669.91;;;9.49;83.32
73341;BME280;61578;52.002;5.468;2022-09-23T02:47:48;101660.22;;;9.48;84.05
73341;BME280;61578;52.002;5.468;2022-09-23T02:48:33;101645.75;;;9.37;83.86
73341;BME280;61578;52.002;5.468;2022-09-23T02:49:11;101668.13;;;9.50;84.05
73341;BME280;61578;52.002;5.468;2022-09-23T02:49:46;101665.53;;;9.48;84.09
73341;BME280;61578;52.002;5.468;2022-09-23T02:50:17;101663.75;;;9.49;84.67
73341;BME280;61578;52.002;5.468;2022-09-23T02:50:48;101661.09;;;9.49;84.57
73341;BME280;61578;52.002;5.468;2022-09-23T02:51:19;101663.81;;;9.47;84.71
73341;BME280;61578;52.002;5.468;2022-09-23T02:51:50;101646.28;;;9.45;84.71
73341;BME280;61578;52.002;5.468;2022-09-23T02:52:23;101671.75;;;9.47;83.89
73341;BME280;61578;52.002;5.468;2022-09-23T02:52:54;101675.16;;;9.51;84.06
73341;BME280;61578;52.002;5.468;2022-09-23T02:53:25;101664.53;;;9.51;84.34
73341;BME280;61578;52.002;5.468;2022-09-23T02:53:56;101661.88;;;9.51;83.92
73341;BME280;61578;52.002;5.468;2022-09-23T02:54:28;101660.16;;;9.50;83.87
73341;BME280;61578;52.002;5.468;2022-09-23T02:54:59;101662.81;;;9.50;84.12
73341;BME280;61578;52.002;5.468;2022-09-23T02:55:30;101660.41;;;9.45;84.25
73341;BME280;61578;52.002;5.468;2022-09-23T02:56:18;101658.59;;;9.46;84.25
73341;BME280;61578;52.002;5.468;2022-09-23T02:56:51;101656.03;;;9.44;83.80
73341;BME280;61578;52.002;5.468;2022-09-23T02:57:22;101662.81;;;9.50;83.89
73341;BME280;61578;52.002;5.468;2022-09-23T02:57:53;101650.66;;;9.46;84.29
73341;BME280;61578;52.002;5.468;2022-09-23T02:58:24;101646.63;;;9.37;84.10
73341;BME280;61578;52.002;5.468;2022-09-23T02:58:55;101658.50;;;9.47;84.27
73341;BME280;61578;52.002;5.468;2022-09-23T02:59:29;101662.88;;;9.48;84.62
73341;BME280;61578;52.002;5.468;2022-09-23T03:00:01;101661.97;;;9.49;84.46
73341;BME280;61578;52.002;5.468;2022-09-23T03:00:50;101653.13;;;9.49;84.49
73341;BME280;61578;52.002;5.468;2022-09-23T03:03:04;101651.34;;;9.49;83.87
73341;BME280;61578;52.002;5.468;2022-09-23T03:05:04;101652.22;;;9.50;83.58
73341;BME280;61578;52.002;5.468;2022-09-23T03:05:49;101646.97;;;9.48;83.92
73341;BME280;61578;52.002;5.468;2022-09-23T03:06:51;101652.34;;;9.47;83.81
73341;BME280;61578;52.002;5.468;2022-09-23T03:08:39;101642.84;;;9.43;84.00
73341;BME280;61578;52.002;5.468;2022-09-23T03:11:08;101640.69;;;9.32;84.20
73341;BME280;61578;52.002;5.468;2022-09-23T03:11:47;101624.34;;;9.22;84.27
73341;BME280;61578;52.002;5.468;2022-09-23T03:12:35;101651.91;;;9.37;83.85
73341;BME280;61578;52.002;5.468;2022-09-23T03:13:30;101648.50;;;9.35;84.11
73341;BME280;61578;52.002;5.468;2022-09-23T03:14:28;101654.56;;;9.37;84.22
73341;BME280;61578;52.002;5.468;2022-09-23T03:15:24;101650.28;;;9.35;84.01
73341;BME280;61578;52.002;5.468;2022-09-23T03:16:30;101647.47;;;9.38;84.11
73341;BME280;61578;52.002;5.468;2022-09-23T03:18:32;101642.47;;;9.32;83.85
73341;BME280;61578;52.002;5.468;2022-09-23T03:21:00;101614.88;;;9.17;84.01
73341;BME280;61578;52.002;5.468;2022-09-23T03:21:25;101620.09;;;9.18;84.55
73341;BME280;61578;52.002;5.468;2022-09-23T03:22:29;101646.03;;;9.31;84.08
73341;BME280;61578;52.002;5.468;2022-09-23T03:23:09;101631.56;;;9.19;83.61
73341;BME280;61578;52.002;5.468;2022-09-23T03:23:47;101637.47;;;9.26;84.14
73341;BME280;61578;52.002;5.468;2022-09-23T03:24:22;101634.22;;;9.19;84.32
73341;BME280;61578;52.002;5.468;2022-09-23T03:25:04;101644.63;;;9.23;84.54
73341;BME280;61578;52.002;5.468;2022-09-23T03:25:44;101633.16;;;9.23;84.76
73341;BME280;61578;52.002;5.468;2022-09-23T03:26:27;101620.25;;;9.15;84.49
73341;BME280;61578;52.002;5.468;2022-09-23T03:27:10;101634.03;;;9.23;84.36
73341;BME280;61578;52.002;5.468;2022-09-23T03:27:47;101618.66;;;9.11;84.35
73341;BME280;61578;52.002;5.468;2022-09-23T03:28:17;101588.72;;;8.91;84.10
73341;BME280;61578;52.002;5.468;2022-09-23T03:28:52;101631.00;;;9.12;84.38
73341;BME280;61578;52.002;5.468;2022-09-23T03:29:24;101639.50;;;9.19;84.71
73341;BME280;61578;52.002;5.468;2022-09-23T03:29:56;101644.81;;;9.19;84.57
73341;BME280;61578;52.002;5.468;2022-09-23T03:30:30;101642.16;;;9.19;84.95
73341;BME280;61578;52.002;5.468;2022-09-23T03:31:05;101620.53;;;9.09;84.48
73341;BME280;61578;52.002;5.468;2022-09-23T03:31:38;101622.13;;;9.13;84.49
73341;BME280;61578;52.002;5.468;2022-09-23T03:32:15;101638.53;;;9.21;84.26
73341;BME280;61578;52.002;5.468;2022-09-23T03:32:49;101643.81;;;9.21;84.61
73341;BME280;61578;52.002;5.468;2022-09-23T03:33:24;101640.25;;;9.22;84.55
73341;BME280;61578;52.002;5.468;2022-09-23T03:34:01;101638.66;;;9.18;84.34
73341;BME280;61578;52.002;5.468;2022-09-23T03:34:42;101640.38;;;9.19;84.82
73341;BME280;61578;52.002;5.468;2022-09-23T03:35:16;101634.44;;;9.14;84.60
73341;BME280;61578;52.002;5.468;2022-09-23T03:36:02;101642.22;;;9.17;85.08
73341;BME280;61578;52.002;5.468;2022-09-23T03:37:07;101645.75;;;9.18;85.52
73341;BME280;61578;52.002;5.468;2022-09-23T03:38:09;101627.53;;;9.10;85.41
73341;BME280;61578;52.002;5.468;2022-09-23T03:38:50;101640.44;;;9.18;85.43
73341;BME280;61578;52.002;5.468;2022-09-23T03:40:54;101644.00;;;9.17;85.28
73341;BME280;61578;52.002;5.468;2022-09-23T03:41:38;101642.31;;;9.16;85.46
73341;BME280;61578;52.002;5.468;2022-09-23T03:42:22;101638.00;;;9.13;86.05
73341;BME280;61578;52.002;5.468;2022-09-23T03:42:56;101644.25;;;9.12;85.70
73341;BME280;61578;52.002;5.468;2022-09-23T03:43:31;101643.16;;;9.16;85.91
73341;BME280;61578;52.002;5.468;2022-09-23T03:44:02;101644.88;;;9.17;85.85
73341;BME280;61578;52.002;5.468;2022-09-23T03:44:35;101643.09;;;9.18;86.14
73341;BME280;61578;52.002;5.468;2022-09-23T03:45:16;101625.09;;;9.06;86.16
73341;BME280;61578;52.002;5.468;2022-09-23T03:45:52;101625.03;;;9.07;85.61
73341;BME280;61578;52.002;5.468;2022-09-23T03:46:26;101648.19;;;9.22;85.71
73341;BME280;61578;52.002;5.468;2022-09-23T03:47:00;101639.38;;;9.22;85.73
73341;BME280;61578;52.002;5.468;2022-09-23T03:47:33;101642.91;;;9.22;85.96
73341;BME280;61578;52.002;5.468;2022-09-23T03:48:04;101629.84;;;9.18;86.11
73341;BME280;61578;52.002;5.468;2022-09-23T03:48:36;101640.31;;;9.21;85.80
73341;BME280;61578;52.002;5.468;2022-09-23T03:49:16;101631.56;;;9.19;85.29
73341;BME280;61578;52.002;5.468;2022-09-23T03:49:48;101640.25;;;9.22;85.96
73341;BME280;61578;52.002;5.468;2022-09-23T03:50:20;101630.50;;;9.23;85.51
73341;BME280;61578;52.002;5.468;2022-09-23T03:50:51;101594.66;;;8.96;85.53
73341;BME280;61578;52.002;5.468;2022-09-23T03:51:22;101598.03;;;8.99;85.53
73341;BME280;61578;52.002;5.468;2022-09-23T03:51:54;101627.13;;;9.19;85.61
73341;BME280;61578;52.002;5.468;2022-09-23T03:52:26;101637.59;;;9.22;85.78
73341;BME280;61578;52.002;5.468;2022-09-23T03:52:57;101634.88;;;9.24;85.71
73341;BME280;61578;52.002;5.468;2022-09-23T03:53:28;101618.31;;;9.19;85.64
73341;BME280;61578;52.002;5.468;2022-09-23T03:53:59;101615.59;;;9.20;85.45
73341;BME280;61578;52.002;5.468;2022-09-23T03:54:30;101627.72;;;9.26;85.75
73341;BME280;61578;52.002;5.468;2022-09-23T03:55:03;101613.75;;;9.22;85.70
73341;BME280;61578;52.002;5.468;2022-09-23T03:55:34;101620.69;;;9.25;85.84
73341;BME280;61578;52.002;5.468;2022-09-23T03:56:05;101629.28;;;9.30;85.61
73341;BME280;61578;52.002;5.468;2022-09-23T03:56:35;101621.47;;;9.27;85.72
73341;BME280;61578;52.002;5.468;2022-09-23T03:57:07;101611.97;;;9.23;85.25
73341;BME280;61578;52.002;5.468;2022-09-23T03:57:39;101628.34;;;9.31;85.25
73341;BME280;61578;52.002;5.468;2022-09-23T03:58:10;101604.13;;;9.20;85.33
73341;BME280;61578;52.002;5.468;2022-09-23T03:58:41;101622.06;;;9.34;85.39
73341;BME280;61578;52.002;5.468;2022-09-23T03:59:13;101624.66;;;9.35;85.32
73341;BME280;61578;52.002;5.468;2022-09-23T03:59:45;101628.16;;;9.36;85.57
73341;BME280;61578;52.002;5.468;2022-09-23T04:00:15;101590.75;;;9.23;85.46
73341;BME280;61578;52.002;5.468;2022-09-23T04:00:47;101626.38;;;9.36;85.27
73341;BME280;61578;52.002;5.468;2022-09-23T04:01:18;101630.72;;;9.37;85.45
73341;BME280;61578;52.002;5.468;2022-09-23T04:01:49;101589.25;;;9.17;85.36
73341;BME280;61578;52.002;5.468;2022-09-23T04:02:21;101622.00;;;9.35;85.30
73341;BME280;61578;52.002;5.468;2022-09-23T04:02:51;101621.84;;;9.38;85.36
73341;BME280;61578;52.002;5.468;2022-09-23T04:03:22;101596.06;;;9.23;85.40
73341;BME280;61578;52.002;5.468;2022-09-23T04:03:53;101616.41;;;9.41;85.26
73341;BME280;61578;52.002;5.468;2022-09-23T04:04:27;101624.28;;;9.43;85.02
73341;BME280;61578;52.002;5.468;2022-09-23T04:04:58;101621.50;;;9.46;85.06
73341;BME280;61578;52.002;5.468;2022-09-23T04:05:28;101573.94;;;9.24;84.70
73341;BME280;61578;52.002;5.468;2022-09-23T04:05:59;101602.41;;;9.38;84.86
73341;BME280;61578;52.002;5.468;2022-09-23T04:06:30;101620.53;;;9.47;84.61